Time;durP1;ratioP1;P1;durP2;ratioP2;P2;SDS_P1;SDS_P2;PMS_P1;PMS_P2;Temp;Humidity;BMP_temperature;BMP_pressure;BME280_temperature;BME280_humidity;BME280_pressure;Samples;Min_cycle;Max_cycle;Signal;HPM_P1;HPM_P2
2023/06/20 00:01:05;;;;;;;0.00;0.00;;;;;;;18.76;96.17;100210.53;4974244;28;20209;-75
2023/06/20 00:03:30;;;;;;;0.00;0.00;;;;;;;18.69;96.27;100204.91;4974156;28;20276;-75
2023/06/20 00:05:56;;;;;;;0.10;0.10;;;;;;;18.71;96.42;100202.56;4974446;28;20264;-74
2023/06/20 00:08:21;;;;;;;0.00;0.00;;;;;;;18.70;96.42;100212.03;4974302;28;20241;-75
2023/06/20 00:10:46;;;;;;;0.53;0.43;;;;;;;18.59;96.43;100216.56;4974087;28;20683;-74
2023/06/20 00:13:12;;;;;;;0.10;0.10;;;;;;;18.54;97.08;100214.13;4972829;28;20198;-75
2023/06/20 00:15:37;;;;;;;0.53;0.50;;;;;;;18.51;97.38;100212.06;4973936;28;20215;-75
2023/06/20 00:18:02;;;;;;;0.10;0.10;;;;;;;18.44;97.99;100216.34;4972458;28;20719;-74
2023/06/20 00:20:29;;;;;;;0.47;0.47;;;;;;;18.33;98.64;100212.59;4973927;28;20572;-75
2023/06/20 00:22:54;;;;;;;0.70;0.47;;;;;;;18.27;99.50;100211.31;4973857;28;20272;-74
2023/06/20 00:25:20;;;;;;;0.30;0.30;;;;;;;18.18;100.00;100213.50;4973946;28;20269;-74
2023/06/20 00:27:45;;;;;;;0.00;0.00;;;;;;;18.14;100.00;100210.69;4972454;28;20647;-74
2023/06/20 00:30:11;;;;;;;0.93;0.93;;;;;;;18.17;100.00;100211.13;4973478;28;20228;-74
2023/06/20 00:32:37;;;;;;;0.50;0.50;;;;;;;18.09;100.00;100207.44;4973584;28;20185;-74
2023/06/20 00:35:02;;;;;;;0.00;0.00;;;;;;;18.11;100.00;100221.69;4973646;28;20221;-74
2023/06/20 00:37:28;;;;;;;0.00;0.00;;;;;;;18.19;100.00;100220.63;4973697;28;20181;-75
2023/06/20 00:39:53;;;;;;;0.97;0.97;;;;;;;18.23;100.00;100218.75;4980341;28;20565;-75
2023/06/20 00:42:20;;;;;;;0.00;0.00;;;;;;;18.19;100.00;100219.84;4988533;28;20189;-75
2023/06/20 00:44:46;;;;;;;0.00;0.00;;;;;;;18.30;100.00;100224.41;4973833;28;20650;-75
2023/06/20 00:47:18;;;;;;;0.00;0.00;;;;;;;18.39;100.00;100229.69;4973666;28;20200;-75
2023/06/20 00:49:46;;;;;;;0.00;0.00;;;;;;;18.43;100.00;100233.31;4973291;28;20643;-75
2023/06/20 00:52:14;;;;;;;0.00;0.00;;;;;;;18.38;99.74;100225.34;4973410;28;20205;-74
2023/06/20 00:54:41;;;;;;;0.00;0.00;;;;;;;18.43;99.63;100225.81;4973340;28;20178;-75
2023/06/20 00:57:07;;;;;;;0.17;0.17;;;;;;;18.43;99.04;100225.81;4973466;28;20197;-74
2023/06/20 00:59:32;;;;;;;0.00;0.00;;;;;;;18.39;99.33;100229.69;4985143;28;20189;-74
2023/06/20 01:01:57;;;;;;;0.43;0.43;;;;;;;18.41;99.91;100222.63;4973154;28;20233;-74
2023/06/20 01:04:23;;;;;;;1.80;0.97;;;;;;;18.38;100.00;100217.84;4973347;28;20185;-75
2023/06/20 01:07:02;;;;;;;0.83;0.83;;;;;;;18.24;100.00;100214.03;4973218;28;20220;-74
2023/06/20 01:09:59;;;;;;;5.97;0.83;;;;;;;18.16;100.00;100218.63;4973043;28;20642;-74
2023/06/20 01:12:43;;;;;;;0.23;0.23;;;;;;;18.19;100.00;100214.31;4973145;28;20196;-74
2023/06/20 01:15:26;;;;;;;0.20;0.20;;;;;;;18.20;100.00;100216.69;4973132;28;20209;-75
2023/06/20 01:18:02;;;;;;;0.90;0.90;;;;;;;18.21;100.00;100221.06;4972861;28;20229;-75
2023/06/20 01:20:36;;;;;;;0.30;0.30;;;;;;;18.32;100.00;100222.06;4973105;28;20580;-75
2023/06/20 01:23:09;;;;;;;0.03;0.03;;;;;;;18.40;100.00;100223.78;4973085;28;20208;-75
2023/06/20 01:26:04;;;;;;;0.00;0.00;;;;;;;18.41;100.00;100213.53;4972999;28;20196;-75
2023/06/20 01:28:45;;;;;;;0.20;0.20;;;;;;;18.48;100.00;100218.34;4972579;28;20655;-74
2023/06/20 01:31:14;;;;;;;0.00;0.00;;;;;;;18.50;100.00;100221.56;4973301;28;20252;-74
2023/06/20 01:33:56;;;;;;;0.00;0.00;;;;;;;18.58;100.00;100223.28;4972989;28;20193;-75
2023/06/20 01:36:24;;;;;;;0.43;0.43;;;;;;;18.60;100.00;100218.16;4974707;28;20210;-74
2023/06/20 01:38:57;;;;;;;0.00;0.00;;;;;;;18.63;100.00;100212.72;4976737;28;20192;-74
2023/06/20 01:41:24;;;;;;;0.00;0.00;;;;;;;18.60;100.00;100215.41;4976779;28;20213;-75
2023/06/20 01:43:51;;;;;;;0.00;0.00;;;;;;;18.68;100.00;100217.94;4975583;28;20665;-74
2023/06/20 01:46:19;;;;;;;0.00;0.00;;;;;;;18.77;100.00;100206.59;4976884;28;20188;-75
2023/06/20 01:48:47;;;;;;;0.00;0.00;;;;;;;18.82;100.00;100209.06;4976511;28;20190;-74
2023/06/20 01:51:14;;;;;;;0.00;0.00;;;;;;;18.59;100.00;100213.81;4976649;28;20621;-74
2023/06/20 01:53:41;;;;;;;0.00;0.00;;;;;;;18.58;100.00;100217.75;4976754;28;20248;-75
2023/06/20 01:56:07;;;;;;;0.20;0.20;;;;;;;18.44;100.00;100218.31;4976545;28;20253;-75
2023/06/20 01:58:34;;;;;;;0.00;0.00;;;;;;;18.44;100.00;100213.56;4976291;28;20544;-74
2023/06/20 02:01:01;;;;;;;0.00;0.00;;;;;;;18.70;100.00;100223.91;4976485;28;20333;-75
2023/06/20 02:03:28;;;;;;;0.00;0.00;;;;;;;18.66;100.00;100225.84;4976506;28;20607;-75
2023/06/20 02:05:56;;;;;;;0.00;0.00;;;;;;;18.39;100.00;100207.56;4976493;28;20198;-74
2023/06/20 02:08:26;;;;;;;0.00;0.00;;;;;;;18.55;100.00;100211.00;4974958;28;20663;-75
2023/06/20 02:10:52;;;;;;;0.00;0.00;;;;;;;18.71;100.00;100203.38;4976224;28;20257;-75
2023/06/20 02:13:21;;;;;;;0.00;0.00;;;;;;;18.88;100.00;100201.22;4976328;28;20619;-75
2023/06/20 02:15:51;;;;;;;0.00;0.00;;;;;;;19.02;100.00;100207.78;4974859;28;20216;-74
2023/06/20 02:18:16;;;;;;;0.00;0.00;;;;;;;18.57;100.00;100202.31;4976050;28;20178;-75
2023/06/20 02:20:42;;;;;;;0.00;0.00;;;;;;;18.57;100.00;100203.13;4974861;28;20217;-75
2023/06/20 02:23:09;;;;;;;0.00;0.00;;;;;;;18.58;100.00;100187.31;4975992;28;20224;-75
2023/06/20 02:25:39;;;;;;;1.27;1.27;;;;;;;18.49;100.00;100200.59;4976057;28;20221;-74
2023/06/20 02:28:07;;;;;;;0.00;0.00;;;;;;;18.37;100.00;100187.75;4975712;28;20186;-75
2023/06/20 02:30:37;;;;;;;0.00;0.00;;;;;;;18.67;100.00;100190.66;4975934;28;20213;-74
2023/06/20 02:33:06;;;;;;;0.00;0.00;;;;;;;18.84;100.00;100206.72;4976024;28;20236;-75
2023/06/20 02:35:33;;;;;;;0.20;0.20;;;;;;;18.70;100.00;100192.66;4974463;28;20679;-74
2023/06/20 02:38:01;;;;;;;0.67;0.67;;;;;;;18.91;100.00;100194.94;4975693;28;20188;-75
2023/06/20 02:40:27;;;;;;;0.00;0.00;;;;;;;19.02;100.00;100191.16;4974514;28;20755;-74
2023/06/20 02:42:52;;;;;;;0.00;0.00;;;;;;;19.07;100.00;100184.47;4975734;28;20269;-74
2023/06/20 02:45:18;;;;;;;0.00;0.00;;;;;;;19.09;100.00;100187.66;4975789;28;20181;-74
2023/06/20 02:48:10;;;;;;;0.00;0.00;;;;;;;19.13;100.00;100191.31;4974326;28;20529;-74
2023/06/20 02:51:16;;;;;;;0.00;0.00;;;;;;;19.07;99.63;100184.47;4975633;28;20202;-74
2023/06/20 02:54:05;;;;;;;0.00;0.00;;;;;;;18.95;100.00;100193.84;4975799;28;20189;-75
2023/06/20 02:56:36;;;;;;;0.00;0.00;;;;;;;18.94;100.00;100189.44;4975297;28;20213;-74
2023/06/20 02:59:05;;;;;;;0.00;0.00;;;;;;;18.65;100.00;100184.66;4975480;28;20313;-75
2023/06/20 03:01:33;;;;;;;0.00;0.00;;;;;;;18.70;100.00;100189.91;4987241;28;20587;-75
2023/06/20 03:04:03;;;;;;;0.63;0.63;;;;;;;18.56;100.00;100200.72;4975506;28;20260;-75
2023/06/20 03:06:30;;;;;;;0.00;0.00;;;;;;;18.78;100.00;100190.78;4975404;28;20643;-75
2023/06/20 03:09:02;;;;;;;0.40;0.40;;;;;;;18.50;100.00;100193.88;4975010;28;20194;-74
2023/06/20 03:11:28;;;;;;;0.00;0.00;;;;;;;18.40;100.00;100200.84;4975260;28;20205;-75
2023/06/20 03:13:53;;;;;;;0.00;0.00;;;;;;;18.55;100.00;100194.38;4974047;28;20252;-75
2023/06/20 03:16:18;;;;;;;0.10;0.10;;;;;;;18.53;100.00;100196.72;4975199;28;20675;-74
2023/06/20 03:18:47;;;;;;;0.00;0.00;;;;;;;18.38;100.00;100198.47;4974935;28;20628;-74
2023/06/20 03:21:12;;;;;;;0.00;0.00;;;;;;;18.28;100.00;100201.84;4975055;28;20241;-75
2023/06/20 03:23:38;;;;;;;0.00;0.00;;;;;;;18.55;100.00;100210.19;4974994;28;20302;-74
2023/06/20 03:26:04;;;;;;;0.00;0.00;;;;;;;18.59;100.00;100205.50;4983250;28;20184;-74
2023/06/20 03:28:29;;;;;;;0.00;0.00;;;;;;;18.45;100.00;100203.31;4973372;28;20678;-75
2023/06/20 03:30:55;;;;;;;0.00;0.00;;;;;;;18.48;100.00;100199.78;4974893;28;20207;-74
2023/06/20 03:33:20;;;;;;;0.00;0.00;;;;;;;18.66;100.00;100195.38;4974966;28;20198;-75
2023/06/20 03:35:46;;;;;;;0.00;0.00;;;;;;;18.45;100.00;100200.53;4974760;28;20209;-74
2023/06/20 03:38:12;;;;;;;0.00;0.00;;;;;;;18.27;100.00;100205.78;4974531;28;20216;-74
2023/06/20 03:40:37;;;;;;;0.00;0.00;;;;;;;18.36;100.00;100206.31;4987339;28;20206;-75
2023/06/20 03:43:02;;;;;;;0.00;0.00;;;;;;;18.29;100.00;100203.44;4974736;28;20186;-74
2023/06/20 03:45:28;;;;;;;0.00;0.00;;;;;;;18.39;100.00;100210.31;4974718;28;20194;-75
2023/06/20 03:47:53;;;;;;;0.10;0.10;;;;;;;18.49;100.00;100211.66;4974375;28;20277;-75
2023/06/20 03:50:19;;;;;;;0.17;0.17;;;;;;;18.64;100.00;100221.81;4974575;28;20280;-74
2023/06/20 03:52:44;;;;;;;0.47;0.47;;;;;;;18.55;100.00;100215.72;4974319;28;20186;-75
2023/06/20 03:55:09;;;;;;;0.00;0.00;;;;;;;18.50;100.00;100219.59;4974420;28;20690;-75
2023/06/20 03:57:35;;;;;;;0.00;0.00;;;;;;;18.60;100.00;100213.44;4974018;28;20181;-74
2023/06/20 04:00:09;;;;;;;2.00;1.70;;;;;;;18.64;100.00;100217.06;4974107;28;20332;-75
2023/06/20 04:02:34;;;;;;;0.37;0.37;;;;;;;18.56;100.00;100209.81;4974257;28;20186;-74
2023/06/20 04:04:59;;;;;;;0.17;0.17;;;;;;;18.54;100.00;100203.84;4974380;28;20190;-74
2023/06/20 04:07:25;;;;;;;0.70;0.70;;;;;;;18.45;100.00;100206.06;4974112;28;20193;-74
2023/06/20 04:09:50;;;;;;;0.00;0.00;;;;;;;18.54;100.00;100219.66;4972529;28;20189;-75
2023/06/20 04:12:16;;;;;;;4.10;0.40;;;;;;;18.62;100.00;100222.16;4974235;28;20185;-75
2023/06/20 04:14:41;;;;;;;0.00;0.00;;;;;;;18.64;100.00;100224.59;4974040;28;20193;-74
2023/06/20 04:17:06;;;;;;;0.57;0.57;;;;;;;18.53;100.00;100212.53;4974147;28;20182;-75
2023/06/20 04:19:33;;;;;;;0.47;0.47;;;;;;;18.52;100.00;100222.00;4973771;28;20495;-74
2023/06/20 04:21:59;;;;;;;1.20;1.13;;;;;;;18.43;100.00;100222.25;4973838;28;20297;-74
2023/06/20 04:24:24;;;;;;;0.30;0.30;;;;;;;18.43;100.00;100214.75;4973933;28;20185;-75
2023/06/20 04:26:49;;;;;;;0.10;0.10;;;;;;;18.43;100.00;100223.03;4974011;28;20189;-75
2023/06/20 04:29:15;;;;;;;0.00;0.00;;;;;;;18.40;100.00;100223.78;4973585;28;20255;-75
2023/06/20 04:31:41;;;;;;;0.20;0.20;;;;;;;18.50;100.00;100224.31;4986758;28;20213;-75
2023/06/20 04:34:06;;;;;;;0.10;0.10;;;;;;;18.37;100.00;100216.22;4973789;28;20264;-74
2023/06/20 04:36:34;;;;;;;0.10;0.10;;;;;;;18.57;100.00;100218.91;4973594;28;20352;-75
2023/06/20 04:38:59;;;;;;;0.67;0.67;;;;;;;18.56;100.00;100214.56;4973459;28;20185;-74
2023/06/20 04:41:25;;;;;;;0.23;0.23;;;;;;;18.67;100.00;100219.13;4972276;28;20217;-75
2023/06/20 04:43:50;;;;;;;0.30;0.30;;;;;;;18.55;100.00;100210.19;4973595;28;20193;-75
2023/06/20 04:46:16;;;;;;;0.00;0.00;;;;;;;18.62;100.00;100210.28;4973636;28;20181;-75
2023/06/20 04:48:41;;;;;;;0.30;0.30;;;;;;;18.53;100.00;100218.88;4973284;28;20576;-75
2023/06/20 04:51:09;;;;;;;0.10;0.00;;;;;;;18.53;100.00;100215.31;4973314;28;20265;-75
2023/06/20 04:53:35;;;;;;;0.37;0.37;;;;;;;18.47;100.00;100222.31;4973415;28;20185;-75
2023/06/20 04:56:00;;;;;;;1.03;0.87;;;;;;;18.60;100.00;100230.03;4973398;28;20247;-74
2023/06/20 04:58:28;;;;;;;1.20;1.20;;;;;;;18.70;100.00;100226.69;4973195;28;20214;-74
2023/06/20 05:01:03;;;;;;;0.10;0.10;;;;;;;18.79;100.00;100231.13;4973378;28;20288;-75
2023/06/20 05:03:28;;;;;;;0.37;0.37;;;;;;;18.74;100.00;100235.03;4972025;28;20244;-75
2023/06/20 05:05:54;;;;;;;0.27;0.27;;;;;;;18.79;100.00;100237.47;4973272;28;20189;-75
2023/06/20 05:08:19;;;;;;;2.33;2.13;;;;;;;18.76;100.00;100242.97;4973005;28;20192;-75
2023/06/20 05:10:45;;;;;;;0.30;0.30;;;;;;;18.66;100.00;100241.59;4972554;28;20249;-74
2023/06/20 05:13:10;;;;;;;0.30;0.30;;;;;;;18.76;100.00;100241.00;4973201;28;20194;-74
2023/06/20 05:15:35;;;;;;;5.30;0.90;;;;;;;18.76;100.00;100249.28;4973023;28;20209;-74
2023/06/20 05:18:01;;;;;;;1.13;1.00;;;;;;;18.69;100.00;100251.97;4972871;28;20194;-75
2023/06/20 05:20:27;;;;;;;0.27;0.27;;;;;;;18.72;100.00;100248.44;4973054;28;20213;-74
2023/06/20 05:22:53;;;;;;;0.20;0.20;;;;;;;18.63;100.00;100251.47;4973022;28;20203;-75
2023/06/20 05:25:18;;;;;;;0.13;0.13;;;;;;;18.59;100.00;100253.34;4973149;28;20655;-74
2023/06/20 05:27:43;;;;;;;0.67;0.67;;;;;;;18.68;100.00;100258.66;4972914;28;20186;-75
2023/06/20 05:30:09;;;;;;;0.63;0.63;;;;;;;18.74;100.00;100257.16;4972769;28;20732;-75
2023/06/20 05:32:34;;;;;;;0.00;0.00;;;;;;;18.87;100.00;100261.34;4972864;28;20524;-75
2023/06/20 05:35:00;;;;;;;0.77;0.77;;;;;;;18.98;100.00;100290.00;4972917;28;20198;-75
2023/06/20 05:37:28;;;;;;;0.00;0.00;;;;;;;18.95;100.00;100301.81;4972933;28;20304;-74
2023/06/20 05:39:53;;;;;;;1.60;1.60;;;;;;;18.99;100.00;100297.13;4972658;28;20193;-75
2023/06/20 05:42:18;;;;;;;0.67;0.67;;;;;;;19.01;100.00;100310.59;4972921;28;20181;-74
2023/06/20 05:44:44;;;;;;;0.00;0.00;;;;;;;19.08;100.00;100307.94;4972884;28;20185;-75
2023/06/20 05:47:17;;;;;;;0.00;0.00;;;;;;;19.12;100.00;100311.56;4981875;28;20240;-75
2023/06/20 05:49:42;;;;;;;0.00;0.00;;;;;;;19.05;100.00;100310.66;4972641;28;20707;-75
2023/06/20 05:52:08;;;;;;;0.13;0.13;;;;;;;19.24;100.00;100313.31;4972737;28;20349;-75
2023/06/20 05:54:34;;;;;;;0.00;0.00;;;;;;;19.11;100.00;100303.66;4972823;28;20209;-75
2023/06/20 05:56:59;;;;;;;0.20;0.20;;;;;;;19.28;100.00;100316.94;4972817;28;20276;-75
2023/06/20 05:59:26;;;;;;;0.00;0.00;;;;;;;19.36;100.00;100304.00;4972625;28;20654;-75
2023/06/20 06:01:52;;;;;;;0.00;0.00;;;;;;;19.42;100.00;100311.63;4972556;28;20201;-75
2023/06/20 06:04:17;;;;;;;0.10;0.10;;;;;;;19.45;100.00;100310.88;4982783;28;20196;-75
2023/06/20 06:06:44;;;;;;;0.10;0.10;;;;;;;19.53;100.00;100312.56;4972631;28;20196;-74
2023/06/20 06:09:10;;;;;;;0.00;0.00;;;;;;;19.53;100.00;100311.78;4972492;28;20179;-74
2023/06/20 06:11:36;;;;;;;0.10;0.10;;;;;;;19.32;100.00;100303.94;4972526;28;20217;-74
2023/06/20 06:14:01;;;;;;;0.00;0.00;;;;;;;19.41;100.00;100312.00;4972764;28;20273;-74
2023/06/20 06:16:27;;;;;;;0.00;0.00;;;;;;;19.52;100.00;100315.69;4972472;28;20211;-75
2023/06/20 06:18:52;;;;;;;0.73;0.73;;;;;;;19.60;100.00;100307.16;4986920;28;20186;-75
2023/06/20 06:21:17;;;;;;;0.00;0.00;;;;;;;19.67;100.00;100317.50;4972258;28;20217;-75
2023/06/20 06:23:44;;;;;;;0.00;0.00;;;;;;;19.72;100.00;100317.19;4976171;28;20240;-74
2023/06/20 06:26:10;;;;;;;0.00;0.00;;;;;;;19.70;100.00;100307.66;4976160;28;20190;-75
2023/06/20 06:28:35;;;;;;;1.23;1.13;;;;;;;19.37;100.00;100305.59;4974432;28;20478;-75
2023/06/20 06:31:07;;;;;;;0.00;0.00;;;;;;;19.38;100.00;100307.97;4975861;28;20215;-75
2023/06/20 06:33:32;;;;;;;0.47;0.47;;;;;;;19.41;100.00;100306.44;4975983;28;20192;-75
2023/06/20 06:35:59;;;;;;;0.00;0.00;;;;;;;19.53;100.00;100307.03;4975879;28;20214;-74
2023/06/20 06:38:25;;;;;;;0.43;0.43;;;;;;;19.52;100.00;100307.38;4975731;28;20233;-75
2023/06/20 06:40:54;;;;;;;0.00;0.00;;;;;;;19.49;100.00;100303.38;4975770;28;20479;-74
2023/06/20 06:43:20;;;;;;;0.40;0.27;;;;;;;19.50;100.00;100293.91;4975879;28;20182;-74
2023/06/20 06:45:45;;;;;;;0.00;0.00;;;;;;;19.56;100.00;100300.75;4975700;28;20189;-74
2023/06/20 06:48:10;;;;;;;0.00;0.00;;;;;;;19.51;100.00;100292.72;4984663;28;20196;-75
2023/06/20 06:50:36;;;;;;;1.87;1.77;;;;;;;19.57;100.00;100291.28;4975655;28;20217;-75
2023/06/20 06:53:01;;;;;;;0.10;0.10;;;;;;;19.59;100.00;100290.88;4975718;28;20193;-74
2023/06/20 06:55:26;;;;;;;0.00;0.00;;;;;;;19.66;100.00;100290.16;4975692;28;20705;-74
2023/06/20 06:57:52;;;;;;;0.00;0.00;;;;;;;19.66;100.00;100284.63;4975378;28;20639;-75
2023/06/20 07:00:17;;;;;;;0.00;0.00;;;;;;;19.71;100.00;100285.13;4975362;28;20635;-75
2023/06/20 07:02:44;;;;;;;1.00;1.00;;;;;;;19.71;100.00;100293.44;4975427;28;20189;-74
2023/06/20 07:05:10;;;;;;;0.00;0.00;;;;;;;19.72;100.00;100281.16;4975476;28;20185;-75
2023/06/20 07:07:36;;;;;;;0.00;0.00;;;;;;;19.70;100.00;100286.28;4975271;28;20193;-75
2023/06/20 07:10:01;;;;;;;0.00;0.00;;;;;;;19.59;100.00;100290.88;4975127;28;20186;-75
2023/06/20 07:12:27;;;;;;;1.87;1.80;;;;;;;19.67;100.00;100289.00;4975351;28;20194;-74
2023/06/20 07:14:56;;;;;;;0.23;0.23;;;;;;;19.70;100.00;100291.03;4975064;28;20190;-75
2023/06/20 07:17:24;;;;;;;0.00;0.00;;;;;;;19.66;100.00;100282.66;4975289;28;20186;-74
2023/06/20 07:19:51;;;;;;;1.60;1.50;;;;;;;19.78;100.00;100285.19;4989078;28;20197;-75
2023/06/20 07:22:16;;;;;;;0.00;0.00;;;;;;;19.77;100.00;100282.78;4975113;28;20285;-74
2023/06/20 07:24:41;;;;;;;0.87;0.87;;;;;;;19.92;100.00;100281.78;4975100;28;20257;-75
2023/06/20 07:27:07;;;;;;;0.43;0.43;;;;;;;20.08;100.00;100276.03;4983669;28;20657;-75
2023/06/20 07:29:32;;;;;;;0.00;0.00;;;;;;;20.15;100.00;100273.34;4974533;28;20643;-74
2023/06/20 07:31:58;;;;;;;3.30;0.97;;;;;;;20.26;100.00;100274.25;4974890;28;20206;-74
2023/06/20 07:34:23;;;;;;;3.13;0.37;;;;;;;20.30;100.00;100269.53;4974148;28;20598;-75
2023/06/20 07:36:48;;;;;;;2.83;2.63;;;;;;;20.04;100.00;100258.53;4974766;28;20229;-74
2023/06/20 07:39:14;;;;;;;0.47;0.47;;;;;;;20.07;100.00;100266.09;4974698;28;20197;-74
2023/06/20 07:41:39;;;;;;;1.00;1.00;;;;;;;19.95;100.00;100266.34;4974692;28;20205;-75
2023/06/20 07:44:04;;;;;;;0.40;0.40;;;;;;;20.08;100.00;100262.94;4974720;28;20186;-74
2023/06/20 07:46:30;;;;;;;0.87;0.53;;;;;;;20.28;100.00;100260.00;4974876;28;20541;-75
2023/06/20 07:48:56;;;;;;;0.20;0.20;;;;;;;20.36;100.00;100261.63;4974339;28;20703;-75
2023/06/20 07:51:21;;;;;;;0.30;0.30;;;;;;;20.32;100.00;100247.75;4974562;28;20333;-75
2023/06/20 07:53:47;;;;;;;0.60;0.50;;;;;;;20.55;100.00;100249.56;4974609;28;20645;-75
2023/06/20 07:56:12;;;;;;;0.00;0.00;;;;;;;20.63;100.00;100245.66;4974483;28;20543;-74
2023/06/20 07:58:39;;;;;;;0.67;0.63;;;;;;;20.63;100.00;100251.22;4974090;28;20193;-75
2023/06/20 08:01:06;;;;;;;0.03;0.03;;;;;;;20.68;100.00;100245.28;4974361;28;20689;-74
2023/06/20 08:03:32;;;;;;;0.40;0.40;;;;;;;20.77;100.00;100246.56;4974254;28;20182;-74
2023/06/20 08:05:57;;;;;;;0.93;0.93;;;;;;;20.89;100.00;100245.47;4974342;28;20187;-75
2023/06/20 08:08:23;;;;;;;0.30;0.30;;;;;;;21.03;100.00;100244.75;4974147;28;20198;-74
2023/06/20 08:10:48;;;;;;;0.33;0.33;;;;;;;21.15;100.00;100249.22;4974147;28;20207;-75
2023/06/20 08:13:13;;;;;;;1.00;1.00;;;;;;;21.13;100.00;100241.25;4974182;28;20525;-75
2023/06/20 08:15:39;;;;;;;0.67;0.67;;;;;;;21.29;100.00;100241.00;4974016;28;20293;-75
2023/06/20 08:18:04;;;;;;;0.50;0.50;;;;;;;21.13;100.00;100230.16;4973814;28;20206;-75
2023/06/20 08:20:30;;;;;;;0.50;0.50;;;;;;;20.84;100.00;100236.72;4985550;28;20218;-75
2023/06/20 08:22:55;;;;;;;0.20;0.20;;;;;;;20.72;100.00;100235.03;4981070;28;20193;-74
2023/06/20 08:25:21;;;;;;;0.00;0.00;;;;;;;20.95;100.00;100238.34;4974496;28;20604;-75
2023/06/20 08:27:46;;;;;;;0.97;0.97;;;;;;;21.20;100.00;100235.72;4987544;28;20184;-74
2023/06/20 08:30:12;;;;;;;0.40;0.37;;;;;;;21.20;100.00;100232.97;4973527;28;20238;-75
2023/06/20 08:32:39;;;;;;;0.00;0.00;;;;;;;21.08;100.00;100236.06;4973790;28;20273;-75
2023/06/20 08:35:08;;;;;;;0.23;0.23;;;;;;;21.26;100.00;100239.75;4981967;28;20221;-75
2023/06/20 08:37:33;;;;;;;0.03;0.03;;;;;;;21.07;100.00;100231.69;4973671;28;20195;-74
2023/06/20 08:39:58;;;;;;;0.43;0.43;;;;;;;20.80;100.00;100231.91;4973495;28;20248;-75
2023/06/20 08:42:23;;;;;;;0.00;0.00;;;;;;;20.88;100.00;100237.53;4973678;28;20599;-74
2023/06/20 08:44:50;;;;;;;0.20;0.20;;;;;;;20.65;100.00;100234.97;4973635;28;20573;-74
2023/06/20 08:47:15;;;;;;;0.40;0.40;;;;;;;20.71;100.00;100233.44;4969179;28;20248;-74
2023/06/20 08:49:41;;;;;;;1.03;0.47;;;;;;;20.69;100.00;100238.59;4971620;28;20195;-74
2023/06/20 08:52:13;;;;;;;0.40;0.40;;;;;;;20.73;100.00;100245.75;4973419;28;20207;-75
2023/06/20 08:54:41;;;;;;;0.00;0.00;;;;;;;20.96;100.00;100242.72;4973484;28;20276;-75
2023/06/20 08:57:07;;;;;;;13.47;1.00;;;;;;;20.95;100.00;100234.78;4973507;28;20682;-75
2023/06/20 08:59:35;;;;;;;0.00;0.00;;;;;;;21.12;100.00;100239.69;4973121;28;20186;-75
2023/06/20 09:02:02;;;;;;;0.13;0.13;;;;;;;21.40;100.00;100241.81;4973278;28;20213;-74
2023/06/20 09:04:28;;;;;;;1.07;1.07;;;;;;;21.47;100.00;100252.19;4973383;28;20300;-74
2023/06/20 09:06:53;;;;;;;0.10;0.10;;;;;;;21.60;100.00;100245.09;4973319;28;20238;-74
2023/06/20 09:09:19;;;;;;;0.70;0.70;;;;;;;21.63;100.00;100247.88;4973595;28;20609;-75
2023/06/20 09:11:56;;;;;;;0.57;0.37;;;;;;;21.79;100.00;100249.53;4973125;28;20213;-74
2023/06/20 09:14:28;;;;;;;0.30;0.30;;;;;;;21.69;100.00;100243.53;4973282;28;20190;-74
2023/06/20 09:16:55;;;;;;;1.70;1.60;;;;;;;21.61;100.00;100241.13;4973035;28;20220;-74
2023/06/20 09:19:23;;;;;;;0.00;0.00;;;;;;;21.89;100.00;100246.00;4972970;28;20192;-74
2023/06/20 09:21:49;;;;;;;0.67;0.67;;;;;;;21.82;100.00;100238.41;4972922;28;20216;-74
2023/06/20 09:24:21;;;;;;;0.30;0.30;;;;;;;22.06;100.00;100236.13;4973358;28;20190;-74
2023/06/20 09:26:50;;;;;;;0.43;0.43;;;;;;;22.00;100.00;100243.25;4973056;28;20199;-74
2023/06/20 09:29:16;;;;;;;0.83;0.83;;;;;;;22.12;100.00;100242.88;4972762;28;20199;-74
2023/06/20 09:31:49;;;;;;;1.27;1.20;;;;;;;22.10;100.00;100237.72;4972842;28;20215;-74
2023/06/20 09:34:18;;;;;;;0.37;0.30;;;;;;;22.18;100.00;100241.31;4973096;28;20640;-75
2023/06/20 09:36:44;;;;;;;1.87;1.77;;;;;;;22.29;100.00;100239.38;4972812;28;20212;-74
2023/06/20 09:39:17;;;;;;;0.00;0.00;;;;;;;22.73;100.00;100240.97;4972859;28;20188;-75
2023/06/20 09:41:53;;;;;;;3.93;3.63;;;;;;;22.73;98.16;100236.19;4972878;28;20203;-75
2023/06/20 09:44:19;;;;;;;0.50;0.50;;;;;;;22.88;98.64;100248.16;4973403;28;20537;-75
2023/06/20 09:46:45;;;;;;;0.03;0.03;;;;;;;22.92;96.33;100246.16;4972690;28;20203;-75
2023/06/20 09:49:12;;;;;;;1.83;1.73;;;;;;;22.80;95.95;100238.97;4972614;28;20334;-74
2023/06/20 09:51:49;;;;;;;1.50;1.40;;;;;;;22.98;96.23;100244.53;4972889;28;20208;-75
2023/06/20 09:54:29;;;;;;;2.10;2.00;;;;;;;22.96;95.25;100246.94;4971587;28;20658;-75
2023/06/20 09:57:00;;;;;;;0.90;0.90;;;;;;;22.90;94.90;100242.19;4974894;28;20242;-75
2023/06/20 09:59:27;;;;;;;0.50;0.50;;;;;;;23.20;96.36;100239.72;4991557;28;20563;-75
2023/06/20 10:01:54;;;;;;;0.83;0.83;;;;;;;23.13;94.53;100234.16;4976420;28;20206;-74
2023/06/20 10:04:20;;;;;;;0.57;0.57;;;;;;;23.24;93.39;100239.72;4976571;28;20337;-75
2023/06/20 10:06:46;;;;;;;0.33;0.33;;;;;;;23.31;92.12;100217.41;4990302;28;20186;-75
2023/06/20 10:09:12;;;;;;;0.50;0.50;;;;;;;23.28;90.24;100207.81;4976241;28;20188;-75
2023/06/20 10:11:40;;;;;;;0.37;0.37;;;;;;;23.52;89.37;100195.00;4976733;28;20225;-75
2023/06/20 10:14:07;;;;;;;0.77;0.77;;;;;;;23.41;88.86;100178.28;4976322;28;20204;-75
2023/06/20 10:16:34;;;;;;;1.23;1.13;;;;;;;23.55;89.24;100182.22;4976254;28;20729;-75
2023/06/20 10:19:15;;;;;;;0.63;0.63;;;;;;;23.86;88.74;100184.06;4976421;28;20607;-76
2023/06/20 10:21:57;;;;;;;0.43;0.43;;;;;;;24.18;86.83;100174.69;4976175;28;20603;-75
2023/06/20 10:24:26;;;;;;;1.40;1.30;;;;;;;24.55;86.26;100174.00;4976115;28;20280;-76
2023/06/20 10:26:53;;;;;;;0.10;0.10;;;;;;;24.65;82.48;100172.34;4990647;28;20192;-76
2023/06/20 10:29:20;;;;;;;0.70;0.70;;;;;;;24.87;82.08;100173.69;4975945;28;20209;-76
2023/06/20 10:31:57;;;;;;;0.93;0.93;;;;;;;24.89;83.51;100176.88;4975945;28;20386;-75
2023/06/20 10:34:41;;;;;;;0.50;0.50;;;;;;;24.65;81.07;100172.34;4976068;28;20182;-75
2023/06/20 10:37:10;;;;;;;0.73;0.73;;;;;;;25.02;81.33;100174.34;4969440;28;20213;-76
2023/06/20 10:39:35;;;;;;;2.97;2.83;;;;;;;24.54;79.79;100164.03;4975924;28;20545;-76
2023/06/20 10:42:41;;;;;;;1.83;1.73;;;;;;;24.90;81.75;100178.47;4975861;28;20210;-75
2023/06/20 10:45:26;;;;;;;0.57;0.57;;;;;;;24.90;78.85;100156.09;4975787;28;20288;-76
2023/06/20 10:47:52;;;;;;;0.83;0.83;;;;;;;24.95;80.46;100161.22;4975465;28;20268;-77
2023/06/20 10:50:19;;;;;;;2.67;2.43;;;;;;;25.01;78.08;100154.00;4975699;28;20642;-76
2023/06/20 10:52:44;;;;;;;0.73;0.73;;;;;;;24.73;78.30;100157.06;4975641;28;20194;-76
2023/06/20 10:55:22;;;;;;;1.53;1.43;;;;;;;25.14;78.34;100160.63;4975607;28;20264;-76
2023/06/20 10:57:49;;;;;;;1.10;1.00;;;;;;;25.21;77.37;100152.19;4975381;28;20208;-76
2023/06/20 11:00:17;;;;;;;0.00;0.00;;;;;;;25.23;76.83;100146.16;4975319;28;20205;-75
2023/06/20 11:02:50;;;;;;;1.27;1.27;;;;;;;25.45;78.81;100157.84;4975459;28;20192;-76
2023/06/20 11:05:16;;;;;;;0.30;0.30;;;;;;;25.46;78.21;100153.84;4975553;28;20189;-76
2023/06/20 11:07:55;;;;;;;0.10;0.10;;;;;;;25.43;78.31;100157.47;4974219;28;20284;-76
2023/06/20 11:10:32;;;;;;;0.50;0.50;;;;;;;24.93;80.16;100153.25;4975269;28;20715;-75
2023/06/20 11:13:00;;;;;;;1.17;1.17;;;;;;;24.80;80.78;100148.63;4974130;28;20232;-76
2023/06/20 11:15:28;;;;;;;0.50;0.50;;;;;;;25.01;79.76;100137.22;4975226;28;20205;-76
2023/06/20 11:17:54;;;;;;;1.90;1.80;;;;;;;25.24;78.95;100135.75;4975283;28;20181;-76
2023/06/20 11:20:22;;;;;;;2.80;2.60;;;;;;;24.80;78.84;100129.84;4973910;28;20205;-75
2023/06/20 11:22:48;;;;;;;1.00;1.00;;;;;;;25.02;80.65;100135.22;4973664;28;20651;-76